71NC weather

Public forecast

Using degrees Fahrenheit for public forecast. Weather courtesy of forecast.io.

Closest aviation weather report (METAR) to K & D Airport

Closest report is Burlington Alamance Regional Airport, 13.0 nm (24.0 km) S. Retrieved 2020/08/11 23:54 UTC (46 minutes ago):

KBUY 112354Z AUTO 00000KT 10SM CLR 28/23 A2996 RMK AO2 SLP136 T02830228 10328 20283 53001

Closest aviation forecast (TAF) to K & D Airport

Closest forecast is Danville Regional Airport, 19.4 nm (35.9 km) NNE. Retrieved 2020-08-12 00:39 UTC (1 minute ago):

TAF KDAN 112335Z 1200/1224 15004KT P6SM SKC FM120200 18003KT P6SM SCT060 FM121000 00000KT 5SM BR SCT100 FM121230 00000KT P6SM SCT100 FM121900 11004KT P6SM VCTS BKN050CB TEMPO 1220/1223 4SM TS BKN050CB